Napoli, Italy

7:37 AM CET on February 14, 2016 (GMT +0100)
Napoli | | Change Station
CLOSE
Current Station
Personal Weather Station
Location: Napoli, ITALY
Elevation: 564 ft
Nearby Weather Stations

Elev 564 ft 40.85 °N, 14.23 °E | Updated 6 minutes ago

Rain
Rain
55.3 °F
Feels Like 55.3 °F
N
7.0
Wind Variable Wind from SSE
Gusts 15.0 mph

Today
High -- | Low -- °F
--% Chance of Precip.
Yesterday
High -- | Low -- °F
Precip. -- in
Pressure 29.56 in
Visibility 0.6 miles
Clouds Few 1000 ft
Mostly Cloudy 3000 ft
Dew Point 55 °F
Humidity 98%
Rainfall 0.00 in
Snow Depth Not available.
6:59 AM 5:35 PM
Waxing Crescent, 38% visible
METAR LIRN 140620Z 20008KT 160V240 1000 R24/P2000N BR FEW010 BKN030 15/14 Q1001 NOSIG
Pressure 29.56 in
Visibility 0.6 miles
Clouds Few 1000 ft
Mostly Cloudy 3000 ft
Dew Point 55 °F
Humidity 98%
Rainfall 0.00 in
Snow Depth Not available.
6:59 AM 5:35 PM
Waxing Crescent, 38% visible
METAR LIRN 140620Z 20008KT 160V240 1000 R24/P2000N BR FEW010 BKN030 15/14 Q1001 NOSIG

10-Day Weather Forecast

Almanac

Astronomy

Feb. 14, 2016 Rise Set
Actual Time
Civil Twilight
Nautical Twilight
Astronomical Twilight
Moon
Length of Visible Light
Length of Day
Tomorrow will be .
, % of the Moon is Illuminated

Today's Extremes

Country Highs Country Lows

Community

WunderPhotos

Upload Photos

1,892,757 photos uploaded!

WunderBlog® & News

Nearby

Air Quality

  Air Quality AQ Index Pollutant
Not available.

Snow Depth

Station Depth Elevation

Earthquake Activity

City Distance Mag. Time & Date
Minimum magnitude displayed is 2.5.

Coastal Water Temperatures

Place Temperature

Stations

Nearby Weather Stations

Station Location Temp. Windchill Dew Point Humidity Wind Precip. Elev Updated Type